createdAt,value
2022-12-05T00:00:01.735Z,25.33
2022-12-05T00:02:31.913Z,31.40
2022-12-05T00:05:00.585Z,26.97
2022-12-05T00:07:30.341Z,18.37
2022-12-05T00:09:59.163Z,27.07
2022-12-05T00:12:28.119Z,26.93
2022-12-05T00:14:56.820Z,33.23
2022-12-05T00:17:25.534Z,29.33
2022-12-05T00:19:57.093Z,29.67
2022-12-05T00:22:26.954Z,28.60
2022-12-05T00:24:55.788Z,23.80
2022-12-05T00:27:24.455Z,20.83
2022-12-05T00:29:53.187Z,35.00
2022-12-05T00:32:21.905Z,29.57
2022-12-05T00:34:50.634Z,33.97
2022-12-05T00:37:20.825Z,23.13
2022-12-05T00:39:49.507Z,30.47
2022-12-05T00:42:18.290Z,36.47
2022-12-05T00:44:47.099Z,26.90
2022-12-05T00:47:15.814Z,39.73
2022-12-05T00:49:44.516Z,40.03
2022-12-05T00:52:13.176Z,28.90
2022-12-05T00:54:43.232Z,31.67
2022-12-05T00:57:11.959Z,29.23
2022-12-05T00:59:41.459Z,40.93
2022-12-05T01:02:10.143Z,37.33
2022-12-05T01:04:38.808Z,22.57
2022-12-05T01:07:07.504Z,35.53
2022-12-05T01:09:36.117Z,33.20
2022-12-05T01:12:06.835Z,20.77
2022-12-05T01:14:35.962Z,27.40
2022-12-05T01:17:04.815Z,31.73
2022-12-05T01:19:33.863Z,21.97
2022-12-05T01:22:02.936Z,30.40
2022-12-05T01:24:32.022Z,32.20
2022-12-05T01:27:00.702Z,24.27
2022-12-05T01:29:30.804Z,36.20
2022-12-05T01:31:59.530Z,24.37
2022-12-05T01:34:28.318Z,25.23
2022-12-05T01:36:56.958Z,18.27
2022-12-05T01:39:25.628Z,23.77
2022-12-05T01:41:54.357Z,24.50
2022-12-05T01:44:56.249Z,30.53
2022-12-05T01:47:29.832Z,34.93
2022-12-05T01:50:00.026Z,36.30
2022-12-05T01:52:30.894Z,37.70
2022-12-05T01:55:06.301Z,35.57
2022-12-05T01:57:35.604Z,36.63
2022-12-05T02:00:09.743Z,36.43
2022-12-05T02:02:42.733Z,34.90
2022-12-05T02:05:20.126Z,39.23
2022-12-05T02:07:49.811Z,35.20
2022-12-05T02:10:19.368Z,36.60
2022-12-05T02:12:48.429Z,34.77
2022-12-05T02:15:29.811Z,35.00
2022-12-05T02:18:08.124Z,34.77
2022-12-05T02:20:46.083Z,20.73
2022-12-05T02:23:46.972Z,26.87
2022-12-05T02:26:53.346Z,38.03
2022-12-05T02:30:03.416Z,35.30
2022-12-05T02:32:48.789Z,30.93
2022-12-05T02:35:30.459Z,36.17
2022-12-05T02:38:10.011Z,32.53
2022-12-05T02:40:51.708Z,34.80
2022-12-05T02:43:25.229Z,40.33
2022-12-05T02:45:59.685Z,36.43
2022-12-05T02:48:29.659Z,30.93
2022-12-05T02:50:59.806Z,36.80
2022-12-05T02:53:31.349Z,25.33
2022-12-05T02:56:00.607Z,36.80
2022-12-05T02:58:35.092Z,38.63
2022-12-05T03:01:06.001Z,34.13
2022-12-05T03:03:36.028Z,37.67
2022-12-05T03:06:09.477Z,35.30
2022-12-05T03:08:43.012Z,34.13
2022-12-05T03:11:12.009Z,32.97
2022-12-05T03:13:44.586Z,24.87
2022-12-05T03:16:19.885Z,19.97
2022-12-05T03:18:52.632Z,38.50
2022-12-05T03:21:31.849Z,34.60
2022-12-05T03:24:05.685Z,28.37
2022-12-05T03:26:46.135Z,22.20
2022-12-05T03:29:26.385Z,30.33
2022-12-05T03:32:08.304Z,26.20
2022-12-05T03:34:50.472Z,35.67
2022-12-05T03:37:31.390Z,24.67
2022-12-05T03:40:09.932Z,38.97
2022-12-05T03:42:44.609Z,29.13
2022-12-05T03:45:16.699Z,36.07
2022-12-05T03:47:51.615Z,34.93
2022-12-05T03:50:25.028Z,40.43
2022-12-05T03:53:19.149Z,39.90
2022-12-05T03:55:51.937Z,35.83
2022-12-05T03:58:28.289Z,37.97
2022-12-05T04:01:00.311Z,34.30
2022-12-05T04:03:40.341Z,38.03
2022-12-05T04:06:15.893Z,37.57
2022-12-05T04:08:48.786Z,37.97
2022-12-05T04:11:21.701Z,38.27
2022-12-05T04:13:54.143Z,34.00
2022-12-05T04:16:43.374Z,36.10
2022-12-05T04:19:18.355Z,35.53
2022-12-05T04:21:50.898Z,35.33
2022-12-05T04:24:40.623Z,36.00
2022-12-05T04:27:24.179Z,34.60
2022-12-05T04:30:01.144Z,35.00
2022-12-05T04:32:37.300Z,37.77
2022-12-05T04:35:12.635Z,33.80
2022-12-05T04:37:45.631Z,37.80
2022-12-05T04:40:20.360Z,36.87
2022-12-05T04:42:50.906Z,36.60
2022-12-05T04:45:23.811Z,33.83
2022-12-05T04:47:57.134Z,37.37
2022-12-05T04:50:31.934Z,34.57
2022-12-05T04:53:02.261Z,29.47
2022-12-05T04:55:35.996Z,32.83
2022-12-05T04:58:10.070Z,25.03
2022-12-05T05:00:47.380Z,34.70
2022-12-05T05:03:21.235Z,35.70
2022-12-05T05:05:55.424Z,34.83
2022-12-05T05:08:27.333Z,34.30
2022-12-05T05:11:18.585Z,33.47
2022-12-05T05:13:47.307Z,33.03
2022-12-05T05:16:19.466Z,36.77
2022-12-05T05:18:49.150Z,38.27
2022-12-05T05:21:22.138Z,35.93
2022-12-05T05:23:51.116Z,36.50
2022-12-05T05:26:20.498Z,37.67
2022-12-05T05:28:50.174Z,34.70
2022-12-05T05:31:19.993Z,36.70
2022-12-05T05:33:51.250Z,36.67
2022-12-05T05:36:22.525Z,36.10
2022-12-05T05:38:52.892Z,35.13
2022-12-05T05:41:23.089Z,38.73
2022-12-05T05:43:52.245Z,37.67
2022-12-05T05:46:23.370Z,39.97
2022-12-05T05:48:52.336Z,37.27
2022-12-05T05:51:25.785Z,36.50
2022-12-05T05:53:54.421Z,37.00
2022-12-05T05:56:23.275Z,41.10
2022-12-05T05:58:57.806Z,39.07
2022-12-05T06:01:27.015Z,36.77
2022-12-05T06:03:56.010Z,36.10
2022-12-05T06:06:26.733Z,36.00
2022-12-05T06:08:55.871Z,47.07
2022-12-05T06:11:28.945Z,42.33
2022-12-05T06:14:00.826Z,41.17
2022-12-05T06:16:30.019Z,61.00
2022-12-05T06:18:58.790Z,56.17
2022-12-05T06:21:29.147Z,40.60
2022-12-05T06:23:57.901Z,38.27
2022-12-05T06:26:26.669Z,37.97
2022-12-05T06:28:55.756Z,39.47
2022-12-05T06:31:31.226Z,43.47
2022-12-05T06:34:03.087Z,46.80
2022-12-05T06:36:33.459Z,47.30
2022-12-05T06:39:02.783Z,39.13
2022-12-05T06:41:31.650Z,37.77
2022-12-05T06:44:02.552Z,43.47
2022-12-05T06:46:32.084Z,41.93
2022-12-05T06:49:01.376Z,40.07
2022-12-05T06:51:30.278Z,42.57
2022-12-05T06:54:00.676Z,37.87
2022-12-05T06:56:29.704Z,35.70
2022-12-05T06:58:58.338Z,37.60
2022-12-05T07:01:42.860Z,36.53
2022-12-05T07:04:16.752Z,34.13
2022-12-05T07:06:50.512Z,35.50
2022-12-05T07:09:43.718Z,37.97
2022-12-05T07:12:12.434Z,37.27
2022-12-05T07:14:49.642Z,36.80
2022-12-05T07:17:19.183Z,37.23
2022-12-05T07:19:50.435Z,41.47
2022-12-05T07:22:19.949Z,39.93
2022-12-05T07:24:52.047Z,39.10
2022-12-05T07:27:26.804Z,42.47
2022-12-05T07:29:57.235Z,38.83
2022-12-05T07:32:26.318Z,39.00
2022-12-05T07:34:55.793Z,42.90
2022-12-05T07:37:24.945Z,52.00
2022-12-05T07:39:55.416Z,47.63
2022-12-05T07:42:24.185Z,44.97
2022-12-05T07:44:52.855Z,43.30
2022-12-05T07:47:21.869Z,45.50
2022-12-05T07:49:50.572Z,41.93
2022-12-05T07:52:19.236Z,38.83
2022-12-05T07:54:47.933Z,47.80
2022-12-05T07:57:18.082Z,38.80
2022-12-05T07:59:46.750Z,39.53
2022-12-05T08:02:15.522Z,38.80
2022-12-05T08:04:44.207Z,38.53
2022-12-05T08:07:13.011Z,36.70
2022-12-05T08:09:41.753Z,35.13
2022-12-05T08:12:10.994Z,35.60
2022-12-05T08:14:41.263Z,36.87
2022-12-05T08:17:10.014Z,41.77
2022-12-05T08:19:38.852Z,37.03
2022-12-05T08:22:07.491Z,35.53
2022-12-05T08:24:36.191Z,39.17
2022-12-05T08:27:06.634Z,36.50
2022-12-05T08:29:35.893Z,34.67
2022-12-05T08:32:06.401Z,35.37
2022-12-05T08:34:35.075Z,37.20
2022-12-05T08:37:03.812Z,40.10
2022-12-05T08:39:37.976Z,35.80
2022-12-05T08:42:07.300Z,36.40
2022-12-05T08:44:36.013Z,35.33
2022-12-05T08:47:06.196Z,37.30
2022-12-05T08:49:34.996Z,38.00
2022-12-05T08:52:03.751Z,36.90
2022-12-05T08:54:32.423Z,43.20
2022-12-05T08:57:01.083Z,38.37
2022-12-05T08:59:29.812Z,33.57
2022-12-05T09:01:58.546Z,35.43
2022-12-05T09:04:28.892Z,36.27
2022-12-05T09:06:57.571Z,37.70
2022-12-05T09:09:26.231Z,32.73
2022-12-05T09:11:55.103Z,34.33
2022-12-05T09:14:24.395Z,33.77
2022-12-05T09:16:53.122Z,35.37
2022-12-05T09:19:24.084Z,34.50
2022-12-05T09:21:54.511Z,33.80
2022-12-05T09:24:23.311Z,33.33
2022-12-05T09:26:52.303Z,34.03
2022-12-05T09:29:21.086Z,34.53
2022-12-05T09:31:52.252Z,32.30
2022-12-05T09:34:21.130Z,33.30
2022-12-05T09:37:05.701Z,35.00
2022-12-05T09:39:40.583Z,35.90
2022-12-05T09:42:29.208Z,33.43
2022-12-05T09:45:19.568Z,35.13
2022-12-05T09:47:53.729Z,35.67
2022-12-05T09:50:24.700Z,35.63
2022-12-05T09:53:14.279Z,34.87
2022-12-05T09:55:48.429Z,32.10
2022-12-05T09:58:28.595Z,34.73
2022-12-05T10:01:03.945Z,36.10
2022-12-05T10:03:42.766Z,36.47
2022-12-05T10:06:17.284Z,34.57
2022-12-05T10:09:03.639Z,36.37
2022-12-05T10:11:40.302Z,35.80
2022-12-05T10:14:14.890Z,35.07
2022-12-05T10:16:49.768Z,34.23
2022-12-05T10:19:22.570Z,33.90
2022-12-05T10:21:58.910Z,38.03
2022-12-05T10:24:33.171Z,34.13
2022-12-05T10:27:07.035Z,33.70
2022-12-05T10:29:39.403Z,34.17
2022-12-05T10:32:17.120Z,33.70
2022-12-05T10:34:46.934Z,33.93
2022-12-05T10:37:18.872Z,34.97
2022-12-05T10:39:48.976Z,33.57
2022-12-05T10:42:22.355Z,34.97
2022-12-05T10:44:56.723Z,32.53
2022-12-05T10:47:26.193Z,33.53
2022-12-05T10:49:57.059Z,34.60
2022-12-05T10:52:40.223Z,33.17
2022-12-05T10:55:09.663Z,34.80
2022-12-05T10:57:39.698Z,49.30
2022-12-05T11:00:15.914Z,33.40
2022-12-05T11:02:45.255Z,31.30
2022-12-05T11:05:14.056Z,34.87
2022-12-05T11:07:49.812Z,34.90
2022-12-05T11:10:26.896Z,33.50
2022-12-05T11:12:59.549Z,36.67
2022-12-05T11:15:29.826Z,34.10
2022-12-05T11:18:18.111Z,36.37
2022-12-05T11:20:46.827Z,35.80
2022-12-05T11:23:27.520Z,36.17
2022-12-05T11:25:56.797Z,32.60
2022-12-05T11:28:36.492Z,42.27
2022-12-05T11:31:08.620Z,40.33
2022-12-05T11:33:38.100Z,35.27
2022-12-05T11:36:14.520Z,38.20
2022-12-05T11:38:43.751Z,37.10
2022-12-05T11:41:35.220Z,44.87
2022-12-05T11:44:24.100Z,54.70
2022-12-05T11:47:01.578Z,44.23
2022-12-05T11:50:00.195Z,39.17
2022-12-05T11:52:40.490Z,40.60
2022-12-05T11:55:16.404Z,44.60
2022-12-05T11:58:06.140Z,38.73
2022-12-05T12:00:44.268Z,35.60
2022-12-05T12:03:40.119Z,37.80
2022-12-05T12:06:25.893Z,34.70
2022-12-05T12:09:08.730Z,35.17
2022-12-05T12:11:45.625Z,36.80
2022-12-05T12:14:21.381Z,37.93
2022-12-05T12:17:01.870Z,37.07
2022-12-05T12:20:05.891Z,38.87
2022-12-05T12:22:49.442Z,40.30
2022-12-05T12:25:27.272Z,37.90
2022-12-05T12:28:06.386Z,40.07
2022-12-05T12:30:48.262Z,38.57
2022-12-05T12:33:28.635Z,35.60
2022-12-05T12:36:02.772Z,34.83
2022-12-05T12:38:56.732Z,34.77
2022-12-05T12:41:39.231Z,35.67
2022-12-05T12:44:24.888Z,29.63
2022-12-05T12:46:58.360Z,34.33
2022-12-05T12:49:47.110Z,32.83
2022-12-05T12:52:18.201Z,28.73
2022-12-05T12:55:13.970Z,28.93
2022-12-05T12:57:58.543Z,30.37
2022-12-05T13:00:37.482Z,33.23
2022-12-05T13:03:12.246Z,30.20
2022-12-05T13:05:47.794Z,26.90
2022-12-05T13:08:23.307Z,26.93
2022-12-05T13:10:52.392Z,24.87
2022-12-05T13:13:24.292Z,24.00
2022-12-05T13:15:55.904Z,24.77
2022-12-05T13:18:26.498Z,24.00
2022-12-05T13:20:59.877Z,26.40
2022-12-05T13:23:32.072Z,24.60
2022-12-05T13:26:02.833Z,22.80
2022-12-05T13:28:33.478Z,23.07
2022-12-05T13:31:04.920Z,20.17
2022-12-05T13:33:36.382Z,17.90
2022-12-05T13:36:29.820Z,17.43
2022-12-05T13:39:18.611Z,16.30
2022-12-05T13:42:07.179Z,13.83
2022-12-05T13:44:40.722Z,13.83
2022-12-05T13:47:25.976Z,16.30
2022-12-05T13:49:58.275Z,14.70
2022-12-05T13:52:32.185Z,14.67
2022-12-05T13:55:06.679Z,12.97
2022-12-05T13:57:53.900Z,12.90
2022-12-05T14:00:31.770Z,16.60
2022-12-05T14:03:04.868Z,12.20
2022-12-05T14:05:48.079Z,19.57
2022-12-05T14:08:55.199Z,13.27
2022-12-05T14:11:24.727Z,24.37
2022-12-05T14:13:53.684Z,15.57
2022-12-05T14:16:53.093Z,13.43
2022-12-05T14:19:58.971Z,11.00
2022-12-05T14:22:50.132Z,16.13
2022-12-05T14:25:37.465Z,16.47
2022-12-05T14:28:19.713Z,13.80
2022-12-05T14:31:02.670Z,17.50
2022-12-05T14:33:32.117Z,14.40
2022-12-05T14:36:08.906Z,14.70
2022-12-05T14:38:38.699Z,18.13
2022-12-05T14:41:18.451Z,13.10
2022-12-05T14:44:18.073Z,12.60
2022-12-05T14:46:47.566Z,13.30
2022-12-05T14:49:40.749Z,12.77
2022-12-05T14:52:13.532Z,12.53
2022-12-05T14:54:42.701Z,12.90
2022-12-05T14:57:16.556Z,14.17
2022-12-05T14:59:52.309Z,15.03
2022-12-05T15:02:27.003Z,14.03
2022-12-05T15:05:01.844Z,13.23
2022-12-05T15:07:34.950Z,13.67
2022-12-05T15:10:07.610Z,14.10
2022-12-05T15:12:43.204Z,13.67
2022-12-05T15:15:20.060Z,16.40
2022-12-05T15:17:53.263Z,15.80
2022-12-05T15:20:40.959Z,16.03
2022-12-05T15:23:43.508Z,17.23
2022-12-05T15:29:15.667Z,14.80
2022-12-05T15:31:48.502Z,16.23
2022-12-05T15:34:21.845Z,16.57
2022-12-05T15:36:56.336Z,15.63
2022-12-05T15:39:28.641Z,15.53
2022-12-05T15:41:58.453Z,15.00
2022-12-05T15:44:37.660Z,13.40
2022-12-05T15:47:07.148Z,15.30
2022-12-05T15:49:35.813Z,14.83
2022-12-05T15:52:16.667Z,16.10
2022-12-05T15:54:46.383Z,14.00
2022-12-05T15:57:20.233Z,13.00
2022-12-05T15:59:55.646Z,14.07
2022-12-05T16:02:30.832Z,13.60
2022-12-05T16:05:01.161Z,15.93
2022-12-05T16:07:32.695Z,16.10
2022-12-05T16:10:03.248Z,17.23
2022-12-05T16:12:36.667Z,15.67
2022-12-05T16:15:13.594Z,16.20
2022-12-05T16:17:46.878Z,16.33
2022-12-05T16:20:25.394Z,17.87
2022-12-05T16:22:57.684Z,18.17
2022-12-05T16:25:28.750Z,18.57
2022-12-05T16:28:00.425Z,19.60
2022-12-05T16:30:31.894Z,19.43
2022-12-05T16:33:04.047Z,20.97
2022-12-05T16:35:36.060Z,20.20
2022-12-05T16:38:24.786Z,19.27
2022-12-05T16:40:59.475Z,18.47
2022-12-05T16:43:42.231Z,16.60
2022-12-05T16:46:48.055Z,16.50
2022-12-05T16:49:39.981Z,17.20
2022-12-05T16:52:15.587Z,15.90
2022-12-05T16:54:46.815Z,16.93
2022-12-05T16:57:17.067Z,15.80
2022-12-05T16:59:48.457Z,16.40
2022-12-05T17:02:20.281Z,15.97
2022-12-05T17:04:49.069Z,14.80
2022-12-05T17:07:17.799Z,15.03
2022-12-05T17:09:46.503Z,14.80
2022-12-05T17:12:25.812Z,15.67
2022-12-05T17:14:54.480Z,15.33
2022-12-05T17:17:24.935Z,14.63
2022-12-05T17:19:54.045Z,14.70
2022-12-05T17:22:23.456Z,14.80
2022-12-05T17:24:54.885Z,16.80
2022-12-05T17:27:23.815Z,16.60
2022-12-05T17:29:52.579Z,15.80
2022-12-05T17:32:21.585Z,14.10
2022-12-05T17:34:51.844Z,15.50
2022-12-05T17:37:20.821Z,16.20
2022-12-05T17:39:49.752Z,14.53
2022-12-05T17:42:21.544Z,15.13
2022-12-05T17:44:50.439Z,15.67
2022-12-05T17:47:19.212Z,17.10
2022-12-05T17:49:48.095Z,13.13
2022-12-05T17:52:22.561Z,15.13
2022-12-05T17:54:51.655Z,13.40
2022-12-05T17:57:20.592Z,17.33
2022-12-05T17:59:49.335Z,14.53
2022-12-05T18:02:20.098Z,18.00
2022-12-05T18:04:48.957Z,17.47
2022-12-05T18:07:19.458Z,15.63
2022-12-05T18:09:48.284Z,17.00
2022-12-05T18:12:17.069Z,12.47
2022-12-05T18:14:45.772Z,11.97
2022-12-05T18:17:14.502Z,13.03
2022-12-05T18:19:43.229Z,14.53
2022-12-05T18:22:13.765Z,15.60
2022-12-05T18:24:46.188Z,16.83
2022-12-05T18:27:14.907Z,15.07
2022-12-05T18:29:43.609Z,18.27
2022-12-05T18:32:12.766Z,18.17
2022-12-05T18:34:41.570Z,17.07
2022-12-05T18:37:10.617Z,22.50
2022-12-05T18:39:39.664Z,14.97
2022-12-05T18:42:15.014Z,17.07
2022-12-05T18:44:44.469Z,13.73
2022-12-05T18:47:13.473Z,14.37
2022-12-05T18:49:42.475Z,12.83
2022-12-05T18:52:12.648Z,14.43
2022-12-05T18:54:41.603Z,13.80
2022-12-05T18:57:12.021Z,13.77
2022-12-05T18:59:40.705Z,13.10
2022-12-05T19:02:11.297Z,12.17
2022-12-05T19:04:40.047Z,11.60
2022-12-05T19:07:08.930Z,12.00
2022-12-05T19:09:38.230Z,15.60
2022-12-05T19:12:07.468Z,14.70
2022-12-05T19:14:38.119Z,15.37
2022-12-05T19:17:06.899Z,14.33
2022-12-05T19:19:35.657Z,14.97
2022-12-05T19:22:04.390Z,13.63
2022-12-05T19:24:33.259Z,13.13
2022-12-05T19:27:02.188Z,13.77
2022-12-05T19:29:30.858Z,12.97
2022-12-05T19:32:01.081Z,13.97
2022-12-05T19:34:29.841Z,13.17
2022-12-05T19:36:58.545Z,12.63
2022-12-05T19:39:30.197Z,13.20
2022-12-05T19:41:59.553Z,13.63
2022-12-05T19:44:28.603Z,13.90
2022-12-05T19:46:57.403Z,17.27
2022-12-05T19:49:27.591Z,21.93
2022-12-05T19:51:58.757Z,33.87
2022-12-05T19:54:27.933Z,37.87
2022-12-05T19:57:00.535Z,35.37
2022-12-05T19:59:29.317Z,37.57
2022-12-05T20:01:58.082Z,43.43
2022-12-05T20:04:28.256Z,27.17
2022-12-05T20:06:56.924Z,27.80
2022-12-05T20:09:25.640Z,18.60
2022-12-05T20:11:55.944Z,16.00
2022-12-05T20:14:26.284Z,18.93
2022-12-05T20:16:55.788Z,20.93
2022-12-05T20:19:24.863Z,17.37
2022-12-05T20:21:55.605Z,17.23
2022-12-05T20:24:24.369Z,16.67
2022-12-05T20:26:53.338Z,14.83
2022-12-05T20:29:22.198Z,14.93
2022-12-05T20:31:56.704Z,14.13
2022-12-05T20:34:25.595Z,15.60
2022-12-05T20:36:55.768Z,15.97
2022-12-05T20:39:27.320Z,16.80
2022-12-05T20:41:56.600Z,16.53
2022-12-05T20:44:25.453Z,13.00
2022-12-05T20:46:54.520Z,14.57
2022-12-05T20:49:23.505Z,13.67
2022-12-05T20:51:52.192Z,12.77
2022-12-05T20:54:22.400Z,13.23
2022-12-05T20:56:51.112Z,13.37
2022-12-05T20:59:19.847Z,12.23
2022-12-05T21:01:49.254Z,9.20
2022-12-05T21:04:18.107Z,7.50
2022-12-05T21:06:47.105Z,7.33
2022-12-05T21:09:19.376Z,7.60
2022-12-05T21:11:49.496Z,9.10
2022-12-05T21:14:18.196Z,6.90
2022-12-05T21:16:47.212Z,7.10
2022-12-05T21:19:16.222Z,7.20
2022-12-05T21:21:44.952Z,7.10
2022-12-05T21:24:13.761Z,7.10
2022-12-05T21:26:42.818Z,6.80
2022-12-05T21:29:13.143Z,5.80
2022-12-05T21:31:43.797Z,5.80
2022-12-05T21:34:16.219Z,5.70
2022-12-05T21:36:45.375Z,5.50
2022-12-05T21:39:14.444Z,5.67
2022-12-05T21:41:43.248Z,5.80
2022-12-05T21:44:14.854Z,5.57
2022-12-05T21:46:43.723Z,5.50
2022-12-05T21:49:12.646Z,7.00
2022-12-05T21:51:41.579Z,5.70
2022-12-05T21:54:10.407Z,7.80
2022-12-05T21:56:39.233Z,6.43
2022-12-05T21:59:07.927Z,7.40
2022-12-05T22:01:38.198Z,6.30
2022-12-05T22:04:07.049Z,5.37
2022-12-05T22:06:35.796Z,5.60
2022-12-05T22:09:05.055Z,5.87
2022-12-05T22:11:33.782Z,5.73
2022-12-05T22:14:02.569Z,5.70
2022-12-05T22:16:33.579Z,6.70
2022-12-05T22:19:04.109Z,10.77
2022-12-05T22:21:34.128Z,11.10
2022-12-05T22:24:03.714Z,7.17
2022-12-05T22:26:32.360Z,7.80
2022-12-05T22:29:01.066Z,6.90
2022-12-05T22:31:29.790Z,7.87
2022-12-05T22:33:58.810Z,8.00
2022-12-05T22:36:28.845Z,9.00
2022-12-05T22:38:57.525Z,15.53
2022-12-05T22:41:27.644Z,4.87
2022-12-05T22:43:58.321Z,5.10
2022-12-05T22:46:29.039Z,5.07
2022-12-05T22:48:58.401Z,4.93
2022-12-05T22:51:29.581Z,5.20
2022-12-05T22:53:58.598Z,4.30
2022-12-05T22:56:29.104Z,5.27
2022-12-05T22:58:59.478Z,5.80
2022-12-05T23:01:30.453Z,5.20
2022-12-05T23:04:00.984Z,4.13
2022-12-05T23:06:32.576Z,4.97
2022-12-05T23:09:02.410Z,5.60
2022-12-05T23:11:31.858Z,5.00
2022-12-05T23:14:02.225Z,4.60
2022-12-05T23:16:35.246Z,5.40
2022-12-05T23:19:08.296Z,5.23
2022-12-05T23:21:39.796Z,5.40
2022-12-05T23:24:10.074Z,4.17
2022-12-05T23:26:40.698Z,5.40
2022-12-05T23:29:09.972Z,5.60
2022-12-05T23:31:38.561Z,5.60
2022-12-05T23:34:07.358Z,5.27
2022-12-05T23:36:37.807Z,4.67
2022-12-05T23:39:06.952Z,5.13
2022-12-05T23:41:36.151Z,5.40
2022-12-05T23:44:04.832Z,5.57
2022-12-05T23:46:33.724Z,5.83
2022-12-05T23:49:02.477Z,5.23
2022-12-05T23:51:32.276Z,5.10
2022-12-05T23:54:04.082Z,3.67
2022-12-05T23:56:34.008Z,4.90
2022-12-05T23:59:02.970Z,4.90
